createdAt,value
2017-12-12T00:00:51.193Z,98397.58
2017-12-12T00:01:55.487Z,98390.45
2017-12-12T00:03:00.092Z,98393.55
2017-12-12T00:04:04.790Z,98392.23
2017-12-12T00:05:09.771Z,98393.66
2017-12-12T00:06:14.157Z,98389.36
2017-12-12T00:07:18.964Z,98397.10
2017-12-12T00:09:24.222Z,98402.02
2017-12-12T00:10:28.759Z,98414.52
2017-12-12T00:11:32.992Z,98412.41
2017-12-12T00:12:37.239Z,98417.45
2017-12-12T00:13:41.583Z,98420.33
2017-12-12T00:14:45.960Z,98422.03
2017-12-12T00:15:50.163Z,98429.14
2017-12-12T00:16:54.821Z,98418.66
2017-12-12T00:17:59.328Z,98423.34
2017-12-12T00:19:04.039Z,98424.22
2017-12-12T00:20:08.878Z,98430.86
2017-12-12T00:21:13.137Z,98429.06
2017-12-12T00:22:19.158Z,98440.05
2017-12-12T00:23:23.755Z,98441.28
2017-12-12T00:24:27.981Z,98442.16
2017-12-12T00:25:32.214Z,98438.06
2017-12-12T00:26:36.512Z,98446.97
2017-12-12T00:27:40.747Z,98447.53
2017-12-12T00:28:44.970Z,98450.41
2017-12-12T00:29:49.573Z,98459.76
2017-12-12T00:30:53.992Z,98458.73
2017-12-12T00:31:59.606Z,98453.23
2017-12-12T00:33:04.164Z,98466.37
2017-12-12T00:34:08.424Z,98466.27
2017-12-12T00:35:12.730Z,98468.75
2017-12-12T00:36:17.315Z,98467.84
2017-12-12T00:37:21.682Z,98468.63
2017-12-12T00:38:26.011Z,98470.59
2017-12-12T00:39:31.171Z,98471.00
2017-12-12T00:40:35.449Z,98471.81
2017-12-12T00:41:39.799Z,98469.77
2017-12-12T00:42:44.359Z,98477.77
2017-12-12T00:43:48.558Z,98481.09
2017-12-12T00:44:52.760Z,98483.12
2017-12-12T00:45:57.303Z,98483.70
2017-12-12T00:47:01.546Z,98488.25
2017-12-12T00:48:05.837Z,98490.69
2017-12-12T00:49:10.096Z,98491.63
2017-12-12T00:50:14.275Z,98488.94
2017-12-12T00:51:18.505Z,98485.24
2017-12-12T00:52:22.827Z,98481.56
2017-12-12T00:53:27.138Z,98477.55
2017-12-12T00:54:31.378Z,98478.66
2017-12-12T00:55:35.956Z,98481.25
2017-12-12T00:56:41.160Z,98482.66
2017-12-12T00:57:45.463Z,98489.85
2017-12-12T00:58:49.701Z,98501.16
2017-12-12T00:59:54.080Z,98503.78
2017-12-12T01:00:58.704Z,98505.97
2017-12-12T01:02:03.822Z,98514.20
2017-12-12T01:03:08.653Z,98513.25
2017-12-12T01:04:12.916Z,98518.73
2017-12-12T01:05:17.251Z,98524.69
2017-12-12T01:06:21.486Z,98534.77
2017-12-12T01:07:25.795Z,98534.31
2017-12-12T01:08:30.347Z,98538.27
2017-12-12T01:09:34.591Z,98542.41
2017-12-12T01:10:38.888Z,98541.91
2017-12-12T01:11:43.135Z,98541.55
2017-12-12T01:12:47.472Z,98548.34
2017-12-12T01:13:51.782Z,98546.34
2017-12-12T01:14:56.326Z,98550.62
2017-12-12T01:16:01.031Z,98555.27
2017-12-12T01:17:05.259Z,98557.75
2017-12-12T01:18:09.504Z,98564.88
2017-12-12T01:19:13.852Z,98564.05
2017-12-12T01:20:18.109Z,98563.20
2017-12-12T01:21:22.612Z,98572.44
2017-12-12T01:22:26.809Z,98562.78
2017-12-12T01:23:31.091Z,98569.45
2017-12-12T01:24:35.339Z,98569.33
2017-12-12T01:25:39.523Z,98568.79
2017-12-12T01:26:43.893Z,98572.82
2017-12-12T01:27:48.525Z,98578.31
2017-12-12T01:28:52.746Z,98580.55
2017-12-12T01:29:56.958Z,98585.32
2017-12-12T01:31:01.392Z,98589.17
2017-12-12T01:32:06.748Z,98598.45
2017-12-12T01:33:11.145Z,98604.17
2017-12-12T01:34:15.384Z,98610.17
2017-12-12T01:35:20.593Z,98605.08
2017-12-12T01:36:24.793Z,98602.52
2017-12-12T01:37:29.080Z,98611.29
2017-12-12T01:38:33.451Z,98611.88
2017-12-12T01:39:37.968Z,98608.33
2017-12-12T01:40:43.148Z,98612.91
2017-12-12T01:41:47.368Z,98609.52
2017-12-12T01:42:51.715Z,98608.11
2017-12-12T01:43:56.031Z,98611.92
2017-12-12T01:45:00.255Z,98613.64
2017-12-12T01:46:05.043Z,98619.12
2017-12-12T01:47:09.962Z,98627.28
2017-12-12T01:48:14.300Z,98620.24
2017-12-12T01:49:18.586Z,98625.80
2017-12-12T01:50:22.867Z,98622.67
2017-12-12T01:51:27.290Z,98624.56
2017-12-12T01:52:31.875Z,98626.90
2017-12-12T01:53:36.111Z,98633.61
2017-12-12T01:54:40.581Z,98636.78
2017-12-12T01:55:46.733Z,98647.17
2017-12-12T01:56:51.106Z,98651.92
2017-12-12T01:57:55.627Z,98654.48
2017-12-12T01:59:00.267Z,98654.45
2017-12-12T02:00:06.090Z,98663.49
2017-12-12T02:01:10.943Z,98664.98
2017-12-12T02:02:15.217Z,98658.87
2017-12-12T02:03:19.614Z,98669.34
2017-12-12T02:04:24.180Z,98664.73
2017-12-12T02:05:28.836Z,98668.72
2017-12-12T02:06:33.094Z,98674.86
2017-12-12T02:07:37.366Z,98675.27
2017-12-12T02:08:42.272Z,98672.99
2017-12-12T02:09:47.513Z,98680.66
2017-12-12T02:10:51.702Z,98688.20
2017-12-12T02:11:56.239Z,98688.91
2017-12-12T02:13:00.527Z,98686.41
2017-12-12T02:14:04.996Z,98691.01
2017-12-12T02:15:09.549Z,98691.33
2017-12-12T02:16:14.122Z,98697.05
2017-12-12T02:17:18.386Z,98698.25
2017-12-12T02:18:22.920Z,98701.65
2017-12-12T02:19:27.174Z,98700.91
2017-12-12T02:20:31.523Z,98703.94
2017-12-12T02:21:35.781Z,98700.03
2017-12-12T02:22:40.034Z,98707.48
2017-12-12T02:23:45.041Z,98712.47
2017-12-12T02:24:49.360Z,98716.87
2017-12-12T02:25:53.559Z,98717.70
2017-12-12T02:26:58.688Z,98711.70
2017-12-12T02:28:03.014Z,98716.60
2017-12-12T02:29:07.850Z,98718.39
2017-12-12T02:30:14.956Z,98717.52
2017-12-12T02:31:19.472Z,98716.82
2017-12-12T02:32:23.826Z,98722.41
2017-12-12T02:33:28.165Z,98723.62
2017-12-12T02:34:32.429Z,98730.33
2017-12-12T02:35:36.685Z,98721.94
2017-12-12T02:36:42.157Z,98732.78
2017-12-12T02:37:46.479Z,98732.62
2017-12-12T02:38:50.660Z,98733.42
2017-12-12T02:39:55.008Z,98743.73
2017-12-12T02:40:59.254Z,98750.69
2017-12-12T02:42:03.484Z,98748.03
2017-12-12T02:43:09.226Z,98752.80
2017-12-12T02:44:13.470Z,98751.80
2017-12-12T02:45:17.902Z,98757.33
2017-12-12T02:46:22.393Z,98754.52
2017-12-12T02:47:26.643Z,98758.94
2017-12-12T02:48:30.938Z,98762.16
2017-12-12T02:49:35.626Z,98767.98
2017-12-12T02:50:39.866Z,98767.28
2017-12-12T02:51:44.902Z,98765.61
2017-12-12T02:52:49.109Z,98769.33
2017-12-12T02:53:53.349Z,98771.10
2017-12-12T02:54:57.721Z,98770.66
2017-12-12T02:56:02.300Z,98776.34
2017-12-12T02:57:07.396Z,98773.89
2017-12-12T02:58:11.627Z,98778.34
2017-12-12T02:59:15.941Z,98793.16
2017-12-12T03:00:21.580Z,98787.91
2017-12-12T03:01:25.824Z,98789.66
2017-12-12T03:02:30.352Z,98792.70
2017-12-12T03:03:34.596Z,98803.22
2017-12-12T03:04:38.945Z,98800.61
2017-12-12T03:05:45.327Z,98800.01
2017-12-12T03:06:49.669Z,98804.39
2017-12-12T03:07:53.875Z,98804.98
2017-12-12T03:08:58.429Z,98807.25
2017-12-12T03:10:02.758Z,98803.72
2017-12-12T03:11:07.188Z,98804.24
2017-12-12T03:12:11.448Z,98803.38
2017-12-12T03:13:15.729Z,98811.22
2017-12-12T03:14:20.050Z,98812.14
2017-12-12T03:15:24.749Z,98816.06
2017-12-12T03:16:28.987Z,98817.19
2017-12-12T03:17:34.211Z,98827.14
2017-12-12T03:18:38.530Z,98833.47
2017-12-12T03:19:43.460Z,98838.86
2017-12-12T03:20:47.705Z,98843.84
2017-12-12T03:21:52.229Z,98842.95
2017-12-12T03:22:56.525Z,98856.50
2017-12-12T03:24:00.807Z,98856.58
2017-12-12T03:25:05.031Z,98859.67
2017-12-12T03:26:09.316Z,98864.82
2017-12-12T03:27:13.549Z,98870.99
2017-12-12T03:28:18.122Z,98872.72
2017-12-12T03:29:22.346Z,98878.86
2017-12-12T03:30:26.780Z,98883.61
2017-12-12T03:31:31.059Z,98886.61
2017-12-12T03:32:35.260Z,98891.90
2017-12-12T03:33:39.463Z,98894.41
2017-12-12T03:34:44.807Z,98900.95
2017-12-12T03:35:49.012Z,98904.83
2017-12-12T03:36:53.243Z,98904.91
2017-12-12T03:37:57.447Z,98902.84
2017-12-12T03:39:01.717Z,98899.32
2017-12-12T03:40:05.884Z,98900.88
2017-12-12T03:41:10.190Z,98906.59
2017-12-12T03:42:14.418Z,98908.44
2017-12-12T03:43:18.664Z,98910.57
2017-12-12T03:44:22.983Z,98919.17
2017-12-12T03:45:27.451Z,98914.88
2017-12-12T03:46:31.640Z,98920.13
2017-12-12T03:47:36.242Z,98919.75
2017-12-12T03:48:40.449Z,98932.03
2017-12-12T03:49:45.820Z,98929.38
2017-12-12T03:50:50.107Z,98934.11
2017-12-12T03:51:54.281Z,98938.88
2017-12-12T03:52:58.512Z,98942.18
2017-12-12T03:54:03.046Z,98941.77
2017-12-12T03:55:07.927Z,98947.11
2017-12-12T03:56:12.218Z,98944.42
2017-12-12T03:57:16.440Z,98953.61
2017-12-12T03:58:20.622Z,98951.45
2017-12-12T03:59:24.870Z,98957.17
2017-12-12T04:00:29.914Z,98953.16
2017-12-12T04:01:34.181Z,98973.95
2017-12-12T04:02:38.423Z,98973.48
2017-12-12T04:03:43.798Z,98977.92
2017-12-12T04:04:48.997Z,98980.09
2017-12-12T04:05:54.269Z,98987.54
2017-12-12T04:06:58.468Z,98989.28
2017-12-12T04:08:02.789Z,98988.31
2017-12-12T04:09:08.493Z,98992.71
2017-12-12T04:10:12.746Z,98997.09
2017-12-12T04:11:18.153Z,98997.52
2017-12-12T04:12:22.676Z,99000.63
2017-12-12T04:13:26.925Z,99007.16
2017-12-12T04:14:31.208Z,99014.58
2017-12-12T04:15:35.437Z,99009.27
2017-12-12T04:16:40.145Z,99021.53
2017-12-12T04:17:45.070Z,99019.30
2017-12-12T04:18:49.648Z,99031.16
2017-12-12T04:19:56.156Z,99027.52
2017-12-12T04:21:00.377Z,99031.43
2017-12-12T04:22:04.602Z,99034.12
2017-12-12T04:23:09.648Z,99033.27
2017-12-12T04:24:13.836Z,99036.30
2017-12-12T04:25:18.418Z,99044.28
2017-12-12T04:26:22.572Z,99044.70
2017-12-12T04:27:26.862Z,99045.89
2017-12-12T04:28:31.105Z,99048.56
2017-12-12T04:29:35.343Z,99045.52
2017-12-12T04:30:39.857Z,99042.50
2017-12-12T04:31:44.988Z,99042.14
2017-12-12T04:32:49.215Z,99051.33
2017-12-12T04:33:53.433Z,99053.97
2017-12-12T04:34:57.625Z,99060.11
2017-12-12T04:36:01.844Z,99061.77
2017-12-12T04:37:06.166Z,99061.66
2017-12-12T04:38:10.754Z,99066.92
2017-12-12T04:39:14.968Z,99076.48
2017-12-12T04:40:19.176Z,99076.48
2017-12-12T04:41:23.376Z,99079.09
2017-12-12T04:42:27.572Z,99086.52
2017-12-12T04:43:31.839Z,99097.47
2017-12-12T04:44:36.468Z,99103.19
2017-12-12T04:45:40.968Z,99103.21
2017-12-12T04:46:47.378Z,99100.08
2017-12-12T04:47:51.669Z,99104.45
2017-12-12T04:48:55.885Z,99104.56
2017-12-12T04:50:00.179Z,99103.34
2017-12-12T04:51:04.749Z,99106.22
2017-12-12T04:52:09.884Z,99113.19
2017-12-12T04:53:14.187Z,99115.91
2017-12-12T04:54:18.485Z,99121.98
2017-12-12T04:55:22.673Z,99125.95
2017-12-12T04:56:27.213Z,99123.70
2017-12-12T04:57:31.536Z,99128.86
2017-12-12T04:58:35.757Z,99134.53
2017-12-12T04:59:40.020Z,99131.53
2017-12-12T05:00:46.606Z,99138.05
2017-12-12T05:01:50.881Z,99140.36
2017-12-12T05:02:55.449Z,99142.63
2017-12-12T05:03:59.689Z,99151.41
2017-12-12T05:05:04.953Z,99147.09
2017-12-12T05:06:09.822Z,99165.51
2017-12-12T05:07:14.117Z,99165.53
2017-12-12T05:08:18.391Z,99169.46
2017-12-12T05:09:22.968Z,99177.73
2017-12-12T05:10:27.192Z,99178.65
2017-12-12T05:11:31.505Z,99187.86
2017-12-12T05:12:36.035Z,99190.41
2017-12-12T05:13:40.281Z,99192.14
2017-12-12T05:14:45.143Z,99197.09
2017-12-12T05:15:50.269Z,99199.79
2017-12-12T05:16:54.529Z,99202.84
2017-12-12T05:17:58.765Z,99203.69
2017-12-12T05:19:03.183Z,99201.11
2017-12-12T05:20:09.581Z,99203.69
2017-12-12T05:21:13.787Z,99199.81
2017-12-12T05:22:17.997Z,99200.60
2017-12-12T05:23:22.220Z,99199.27
2017-12-12T05:24:26.574Z,99206.34
2017-12-12T05:25:30.820Z,99217.72
2017-12-12T05:26:35.057Z,99215.04
2017-12-12T05:27:39.465Z,99213.31
2017-12-12T05:28:43.724Z,99221.64
2017-12-12T05:29:48.033Z,99222.06
2017-12-12T05:30:52.298Z,99222.94
2017-12-12T05:31:56.832Z,99226.08
2017-12-12T05:33:01.192Z,99232.16
2017-12-12T05:34:05.940Z,99233.04
2017-12-12T05:35:11.051Z,99233.91
2017-12-12T05:36:15.306Z,99243.01
2017-12-12T05:37:19.724Z,99237.78
2017-12-12T05:38:26.067Z,99249.15
2017-12-12T05:39:32.324Z,99249.20
2017-12-12T05:40:36.631Z,99256.68
2017-12-12T05:41:40.905Z,99260.17
2017-12-12T05:42:46.212Z,99264.05
2017-12-12T05:43:50.404Z,99266.20
2017-12-12T05:44:55.596Z,99263.09
2017-12-12T05:46:00.009Z,99263.88
2017-12-12T05:47:04.241Z,99268.74
2017-12-12T05:48:08.484Z,99278.35
2017-12-12T05:49:12.790Z,99275.71
2017-12-12T05:50:17.115Z,99280.56
2017-12-12T05:51:21.639Z,99288.04
2017-12-12T05:52:25.893Z,99290.77
2017-12-12T05:53:30.215Z,99294.70
2017-12-12T05:54:34.500Z,99297.25
2017-12-12T05:55:38.910Z,99298.20
2017-12-12T05:56:43.135Z,99303.91
2017-12-12T05:57:48.586Z,99309.14
2017-12-12T05:58:52.819Z,99312.91
2017-12-12T05:59:57.064Z,99322.48
2017-12-12T06:01:01.748Z,99320.31
2017-12-12T06:02:06.015Z,99323.07
2017-12-12T06:03:10.589Z,99331.05
2017-12-12T06:04:14.809Z,99334.12
2017-12-12T06:05:19.164Z,99336.80
2017-12-12T06:06:23.418Z,99342.88
2017-12-12T06:07:27.689Z,99344.19
2017-12-12T06:08:31.906Z,99354.66
2017-12-12T06:09:36.610Z,99355.04
2017-12-12T06:10:40.836Z,99355.48
2017-12-12T06:11:46.075Z,99363.38
2017-12-12T06:12:50.274Z,99362.97
2017-12-12T06:13:54.576Z,99369.06
2017-12-12T06:14:58.882Z,99373.00
2017-12-12T06:16:03.386Z,99378.22
2017-12-12T06:17:08.095Z,99380.88
2017-12-12T06:18:13.356Z,99383.49
2017-12-12T06:19:17.546Z,99387.72
2017-12-12T06:20:21.829Z,99378.14
2017-12-12T06:21:28.930Z,99382.08
2017-12-12T06:22:33.126Z,99385.13
2017-12-12T06:23:38.234Z,99387.36
2017-12-12T06:24:42.456Z,99394.33
2017-12-12T06:25:46.740Z,99404.02
2017-12-12T06:26:51.014Z,99410.16
2017-12-12T06:27:56.531Z,99407.99
2017-12-12T06:29:01.194Z,99407.98
2017-12-12T06:30:07.523Z,99407.95
2017-12-12T06:31:11.744Z,99412.80
2017-12-12T06:32:15.952Z,99415.00
2017-12-12T06:33:20.307Z,99413.23
2017-12-12T06:34:25.785Z,99417.14
2017-12-12T06:35:30.291Z,99424.17
2017-12-12T06:36:34.477Z,99431.20
2017-12-12T06:37:38.763Z,99425.49
2017-12-12T06:38:43.603Z,99432.03
2017-12-12T06:39:47.858Z,99436.39
2017-12-12T06:40:52.149Z,99445.13
2017-12-12T06:41:56.691Z,99447.80
2017-12-12T06:43:01.052Z,99449.56
2017-12-12T06:44:06.289Z,99455.65
2017-12-12T06:45:13.577Z,99452.63
2017-12-12T06:46:18.085Z,99455.23
2017-12-12T06:47:23.054Z,99456.55
2017-12-12T06:48:27.578Z,99466.17
2017-12-12T06:49:32.022Z,99468.30
2017-12-12T06:50:36.967Z,99475.71
2017-12-12T06:51:41.445Z,99477.91
2017-12-12T06:52:45.921Z,99481.45
2017-12-12T06:53:50.691Z,99489.78
2017-12-12T06:54:54.951Z,99487.62
2017-12-12T06:56:02.112Z,99495.08
2017-12-12T06:57:07.542Z,99496.34
2017-12-12T06:58:11.871Z,99498.13
2017-12-12T06:59:16.196Z,99502.06
2017-12-12T07:00:20.881Z,99504.23
2017-12-12T07:01:26.085Z,99501.63
2017-12-12T07:02:30.464Z,99505.58
2017-12-12T07:03:34.785Z,99505.98
2017-12-12T07:04:39.095Z,99503.38
2017-12-12T07:05:44.305Z,99504.27
2017-12-12T07:06:49.054Z,99512.11
2017-12-12T07:07:53.282Z,99515.20
2017-12-12T07:08:57.977Z,99518.70
2017-12-12T07:10:02.203Z,99523.09
2017-12-12T07:11:06.620Z,99522.65
2017-12-12T07:12:10.931Z,99534.83
2017-12-12T07:14:27.495Z,99530.95
2017-12-12T07:15:34.025Z,99533.16
2017-12-12T07:16:38.235Z,99539.28
2017-12-12T07:17:43.390Z,99541.02
2017-12-12T07:18:47.611Z,99547.11
2017-12-12T07:19:51.866Z,99549.33
2017-12-12T07:20:56.236Z,99552.36
2017-12-12T07:22:00.452Z,99561.13
2017-12-12T07:23:04.688Z,99562.83
2017-12-12T07:24:09.014Z,99569.44
2017-12-12T07:25:13.635Z,99563.69
2017-12-12T07:26:17.860Z,99572.01
2017-12-12T07:27:22.976Z,99581.67
2017-12-12T07:28:27.789Z,99581.65
2017-12-12T07:29:32.134Z,99575.94
2017-12-12T07:30:36.449Z,99591.27
2017-12-12T07:31:42.169Z,99589.13
2017-12-12T07:32:46.613Z,99591.33
2017-12-12T07:33:50.829Z,99602.70
2017-12-12T07:34:55.162Z,99601.39
2017-12-12T07:35:59.401Z,99598.36
2017-12-12T07:37:04.254Z,99611.94
2017-12-12T07:38:08.887Z,99606.64
2017-12-12T07:39:13.169Z,99607.08
2017-12-12T07:40:17.547Z,99612.34
2017-12-12T07:41:21.886Z,99617.59
2017-12-12T07:42:26.142Z,99624.16
2017-12-12T07:43:30.726Z,99616.72
2017-12-12T07:44:34.976Z,99617.61
2017-12-12T07:45:39.194Z,99625.45
2017-12-12T07:46:44.609Z,99621.94
2017-12-12T07:47:49.366Z,99627.17
2017-12-12T07:48:54.377Z,99630.67
2017-12-12T07:49:58.666Z,99630.68
2017-12-12T07:51:03.050Z,99641.17
2017-12-12T07:52:07.316Z,99628.08
2017-12-12T07:53:11.531Z,99642.06
2017-12-12T07:54:15.793Z,99653.44
2017-12-12T07:55:20.352Z,99653.42
2017-12-12T07:56:24.697Z,99651.61
2017-12-12T07:57:28.927Z,99652.09
2017-12-12T07:58:33.187Z,99663.50
2017-12-12T07:59:37.436Z,99661.33
2017-12-12T08:00:42.389Z,99667.91
2017-12-12T08:01:47.014Z,99671.36
2017-12-12T08:02:51.237Z,99664.35
2017-12-12T08:03:55.638Z,99676.61
2017-12-12T08:04:59.873Z,99672.17
2017-12-12T08:06:04.112Z,99675.66
2017-12-12T08:07:09.010Z,99679.61
2017-12-12T08:08:13.637Z,99682.70
2017-12-12T08:09:17.943Z,99683.15
2017-12-12T08:10:22.180Z,99686.23
2017-12-12T08:11:26.405Z,99688.42
2017-12-12T08:12:30.737Z,99695.39
2017-12-12T08:13:35.764Z,99694.52
2017-12-12T08:14:40.102Z,99700.63
2017-12-12T08:15:46.460Z,99696.29
2017-12-12T08:16:50.676Z,99698.89
2017-12-12T08:17:54.922Z,99703.28
2017-12-12T08:18:59.299Z,99703.70
2017-12-12T08:20:03.574Z,99707.63
2017-12-12T08:21:09.070Z,99711.13
2017-12-12T08:22:15.505Z,99715.09
2017-12-12T08:23:24.094Z,99721.23
2017-12-12T08:24:29.759Z,99720.78
2017-12-12T08:25:33.993Z,99724.28
2017-12-12T08:26:38.248Z,99728.24
2017-12-12T08:27:42.824Z,99731.69
2017-12-12T08:28:47.080Z,99738.73
2017-12-12T08:29:51.269Z,99745.28
2017-12-12T08:30:55.507Z,99748.37
2017-12-12T08:31:59.773Z,99752.73
2017-12-12T08:33:04.023Z,99758.86
2017-12-12T08:34:09.193Z,99764.96
2017-12-12T08:35:14.413Z,99768.45
2017-12-12T08:36:18.671Z,99778.97
2017-12-12T08:37:22.985Z,99783.34
2017-12-12T08:38:27.213Z,99792.53
2017-12-12T08:39:31.816Z,99792.12
2017-12-12T08:40:36.077Z,99788.20
2017-12-12T08:41:40.314Z,99782.52
2017-12-12T08:42:44.629Z,99785.58
2017-12-12T08:43:48.870Z,99783.38
2017-12-12T08:45:05.673Z,99786.88
2017-12-12T08:46:11.288Z,99798.70
2017-12-12T08:47:44.393Z,99800.88
2017-12-12T08:49:07.965Z,99803.05
2017-12-12T08:50:12.502Z,99802.61
2017-12-12T08:51:16.839Z,99807.45
2017-12-12T08:52:21.556Z,99813.99
2017-12-12T08:53:25.937Z,99813.98
2017-12-12T08:54:30.226Z,99807.86
2017-12-12T08:55:34.800Z,99810.08
2017-12-12T08:56:39.098Z,99817.94
2017-12-12T08:57:44.150Z,99813.14
2017-12-12T08:58:48.600Z,99816.18
2017-12-12T08:59:52.855Z,99823.20
2017-12-12T09:01:05.031Z,99828.88
2017-12-12T09:02:29.322Z,99823.63
2017-12-12T09:03:33.643Z,99828.88
2017-12-12T09:04:37.818Z,99832.38
2017-12-12T09:05:42.181Z,99829.75
2017-12-12T09:06:47.012Z,99830.20
2017-12-12T09:07:51.541Z,99835.89
2017-12-12T09:08:55.785Z,99835.88
2017-12-12T09:10:00.191Z,99844.62
2017-12-12T09:11:04.626Z,99849.02
2017-12-12T09:12:09.354Z,99851.64
2017-12-12T09:13:13.579Z,99859.08
2017-12-12T09:14:17.821Z,99859.08
2017-12-12T09:15:22.427Z,99862.56
2017-12-12T09:16:26.958Z,99868.70
2017-12-12T09:17:31.270Z,99868.70
2017-12-12T09:18:35.580Z,99867.37
2017-12-12T09:19:39.846Z,99876.14
2017-12-12T09:20:44.742Z,99881.39
2017-12-12T09:21:49.886Z,99887.06
2017-12-12T09:22:54.168Z,99894.09
2017-12-12T09:23:58.917Z,99895.85
2017-12-12T09:25:03.265Z,99899.78
2017-12-12T09:26:07.546Z,99899.78
2017-12-12T09:27:11.858Z,99899.34
2017-12-12T09:28:16.108Z,99907.20
2017-12-12T09:29:20.355Z,99908.07
2017-12-12T09:30:25.334Z,99910.28
2017-12-12T09:31:29.579Z,99912.93
2017-12-12T09:32:33.926Z,99923.84
2017-12-12T09:33:38.192Z,99928.66
2017-12-12T09:34:42.416Z,99927.81
2017-12-12T09:35:47.672Z,99922.55
2017-12-12T09:36:51.901Z,99929.98
2017-12-12T09:37:56.228Z,99932.61
2017-12-12T09:39:00.510Z,99940.92
2017-12-12T09:40:04.804Z,99938.73
2017-12-12T09:41:10.166Z,99945.73
2017-12-12T09:42:14.408Z,99949.68
2017-12-12T09:43:18.789Z,99950.56
2017-12-12T09:44:23.893Z,99954.95
2017-12-12T09:45:28.287Z,99958.03
2017-12-12T09:46:32.758Z,99961.06
2017-12-12T09:47:37.400Z,99960.20
2017-12-12T09:48:41.735Z,99966.80
2017-12-12T09:49:46.887Z,99968.52
2017-12-12T09:50:51.146Z,99962.84
2017-12-12T09:51:55.357Z,99974.20
2017-12-12T09:53:00.696Z,99968.97
2017-12-12T09:54:05.233Z,99980.34
2017-12-12T09:55:10.473Z,99982.54
2017-12-12T09:56:14.721Z,99971.61
2017-12-12T09:57:19.203Z,99979.91
2017-12-12T09:58:23.438Z,99986.46
2017-12-12T09:59:27.674Z,99984.72
2017-12-12T10:00:32.222Z,99985.61
2017-12-12T10:01:36.519Z,99985.15
2017-12-12T10:02:40.814Z,99998.28
2017-12-12T10:03:46.012Z,99997.41
2017-12-12T10:04:50.365Z,99995.22
2017-12-12T10:05:54.648Z,100003.55
2017-12-12T10:06:59.208Z,100006.20
2017-12-12T10:08:03.477Z,100012.76
2017-12-12T10:09:08.901Z,100013.20
2017-12-12T10:10:13.147Z,100015.37
2017-12-12T10:11:17.413Z,100018.02
2017-12-12T10:12:21.768Z,100023.72
2017-12-12T10:13:26.304Z,100028.54
2017-12-12T10:14:30.562Z,100021.98
2017-12-12T10:15:35.222Z,100019.78
2017-12-12T10:16:39.487Z,100028.11
2017-12-12T10:17:43.911Z,100034.23
2017-12-12T10:18:49.134Z,100036.00
2017-12-12T10:19:53.757Z,100039.49
2017-12-12T10:20:58.052Z,100044.74
2017-12-12T10:22:02.322Z,100046.95
2017-12-12T10:23:06.555Z,100048.70
2017-12-12T10:24:11.743Z,100051.76
2017-12-12T10:25:15.976Z,100051.33
2017-12-12T10:26:20.610Z,100060.10
2017-12-12T10:27:24.853Z,100056.60
2017-12-12T10:28:29.142Z,100063.59
2017-12-12T10:29:33.469Z,100072.38
2017-12-12T10:30:37.818Z,100069.30
2017-12-12T10:31:42.247Z,100080.24
2017-12-12T10:32:46.816Z,100081.13
2017-12-12T10:33:51.136Z,100078.49
2017-12-12T10:34:55.513Z,100081.58
2017-12-12T10:35:59.726Z,100089.89
2017-12-12T10:37:04.068Z,100087.25
2017-12-12T10:38:09.488Z,100085.08
2017-12-12T10:39:14.085Z,100092.52
2017-12-12T10:40:18.432Z,100092.95
2017-12-12T10:41:22.869Z,100096.91
2017-12-12T10:42:27.130Z,100092.52
2017-12-12T10:43:31.596Z,100095.14
2017-12-12T10:44:35.990Z,100103.05
2017-12-12T10:45:40.648Z,100103.05
2017-12-12T10:46:44.973Z,100110.51
2017-12-12T10:47:49.334Z,100102.60
2017-12-12T10:48:53.713Z,100110.08
2017-12-12T10:49:58.260Z,100113.99
2017-12-12T10:51:03.062Z,100112.69
2017-12-12T10:52:08.580Z,100118.39
2017-12-12T10:53:12.847Z,100126.30
2017-12-12T10:54:17.203Z,100124.08
2017-12-12T10:55:21.568Z,100124.55
2017-12-12T10:56:25.860Z,100128.04
2017-12-12T10:57:30.133Z,100134.19
2017-12-12T10:58:34.841Z,100144.70
2017-12-12T10:59:39.137Z,100142.06
2017-12-12T11:00:43.677Z,100145.57
2017-12-12T11:01:47.967Z,100146.45
2017-12-12T11:02:52.264Z,100146.02
2017-12-12T11:03:56.598Z,100152.60
2017-12-12T11:05:01.168Z,100158.27
2017-12-12T11:06:05.530Z,100159.16
2017-12-12T11:07:09.830Z,100163.13
2017-12-12T11:08:14.088Z,100162.67
2017-12-12T11:09:18.998Z,100167.95
2017-12-12T11:10:23.382Z,100163.11
2017-12-12T11:11:27.672Z,100168.38
2017-12-12T11:12:31.947Z,100169.25
2017-12-12T11:13:36.360Z,100170.13
2017-12-12T11:14:40.676Z,100177.61
2017-12-12T11:15:46.958Z,100176.28
2017-12-12T11:16:51.178Z,100179.36
2017-12-12T11:17:55.474Z,100185.92
2017-12-12T11:18:59.837Z,100183.75
2017-12-12T11:20:04.087Z,100186.81
2017-12-12T11:21:08.978Z,100181.09
2017-12-12T11:22:14.547Z,100188.13
2017-12-12T11:23:18.824Z,100183.30
2017-12-12T11:24:23.167Z,100192.51
2017-12-12T11:25:27.400Z,100196.47
2017-12-12T11:26:31.802Z,100196.90
2017-12-12T11:27:36.270Z,100203.47
2017-12-12T11:28:40.929Z,100203.03
2017-12-12T11:29:45.225Z,100202.59
2017-12-12T11:30:49.718Z,100203.05
2017-12-12T11:31:54.256Z,100215.31
2017-12-12T11:32:58.793Z,100215.31
2017-12-12T11:34:03.147Z,100223.22
2017-12-12T11:35:07.850Z,100221.03
2017-12-12T11:36:12.994Z,100229.36
2017-12-12T11:37:17.324Z,100224.09
2017-12-12T11:38:21.568Z,100226.72
2017-12-12T11:39:25.920Z,100234.64
2017-12-12T11:40:30.181Z,100241.66
2017-12-12T11:41:34.437Z,100244.27
2017-12-12T11:42:38.750Z,100240.77
2017-12-12T11:43:43.108Z,100247.79
2017-12-12T11:44:47.433Z,100250.41
2017-12-12T11:45:51.672Z,100258.75
2017-12-12T11:46:56.028Z,100253.94
2017-12-12T11:48:00.603Z,100256.12
2017-12-12T11:49:05.005Z,100257.87
2017-12-12T11:50:09.578Z,100261.38
2017-12-12T11:51:14.034Z,100264.89
2017-12-12T11:52:18.452Z,100262.25
2017-12-12T11:53:23.049Z,100271.47
2017-12-12T11:54:27.634Z,100269.28
2017-12-12T11:55:32.009Z,100267.97
2017-12-12T11:56:37.232Z,100267.52
2017-12-12T11:57:41.665Z,100271.94
2017-12-12T11:58:46.041Z,100282.47
2017-12-12T11:59:50.446Z,100269.27
2017-12-12T12:00:55.411Z,100277.60
2017-12-12T12:01:59.689Z,100283.71
2017-12-12T12:03:03.996Z,100287.66
2017-12-12T12:04:09.994Z,100290.73
2017-12-12T12:05:14.313Z,100295.11
2017-12-12T12:06:18.596Z,100295.55
2017-12-12T12:07:23.194Z,100297.31
2017-12-12T12:08:27.577Z,100302.11
2017-12-12T12:09:31.876Z,100305.16
2017-12-12T12:10:36.285Z,100317.41
2017-12-12T12:11:40.598Z,100315.67
2017-12-12T12:12:45.266Z,100317.88
2017-12-12T12:13:49.512Z,100317.48
2017-12-12T12:14:53.758Z,100324.50
2017-12-12T12:15:58.251Z,100322.30
2017-12-12T12:17:03.335Z,100324.92
2017-12-12T12:18:07.632Z,100323.17
2017-12-12T12:19:12.874Z,100320.52
2017-12-12T12:20:17.189Z,100325.33
2017-12-12T12:21:21.526Z,100333.64
2017-12-12T12:22:25.762Z,100331.45
2017-12-12T12:23:30.226Z,100335.39
2017-12-12T12:24:34.714Z,100333.64
2017-12-12T12:25:39.389Z,100338.87
2017-12-12T12:26:44.202Z,100343.71
2017-12-12T12:27:48.501Z,100347.16
2017-12-12T12:28:52.758Z,100350.22
2017-12-12T12:29:57.095Z,100349.79
2017-12-12T12:31:01.751Z,100352.78
2017-12-12T12:32:06.281Z,100357.53
2017-12-12T12:33:10.654Z,100355.26
2017-12-12T12:34:14.913Z,100353.95
2017-12-12T12:35:19.358Z,100364.39
2017-12-12T12:36:23.696Z,100368.22
2017-12-12T12:37:28.071Z,100362.45